Time;durP1;ratioP1;P1;durP2;ratioP2;P2;SDS_P1;SDS_P2;PMS_P1;PMS_P2;Temp;Humidity;BMP_temperature;BMP_pressure;BME280_temperature;BME280_humidity;BME280_pressure;Samples;Min_cycle;Max_cycle;Signal;HPM_P1;HPM_P2
2022/08/09 00:01:30;;;;;;;3.08;2.80;;;;;;;21.20;55.24;96207.66;4901193;29;20215;-82
2022/08/09 00:03:57;;;;;;;3.10;2.83;;;;;;;21.19;55.55;96205.22;4900685;29;20497;-82
2022/08/09 00:06:24;;;;;;;3.10;2.80;;;;;;;21.03;55.95;96211.94;4900885;29;20259;-82
2022/08/09 00:08:51;;;;;;;4.20;2.92;;;;;;;20.87;57.26;96205.56;4900965;29;20239;-82
2022/08/09 00:11:20;;;;;;;2.80;2.53;;;;;;;20.82;56.97;96202.81;4901514;29;20218;-82
2022/08/09 00:13:46;;;;;;;3.30;3.00;;;;;;;20.76;56.97;96205.56;4901160;29;20657;-82
2022/08/09 00:16:13;;;;;;;4.28;3.05;;;;;;;20.73;57.90;96209.41;4900565;29;20251;-82
2022/08/09 00:18:39;;;;;;;3.13;2.83;;;;;;;20.72;57.36;96212.25;4900322;29;20211;-82
2022/08/09 00:21:07;;;;;;;2.75;2.55;;;;;;;20.70;57.87;96212.47;4901027;29;20274;-82
2022/08/09 00:23:34;;;;;;;3.05;2.75;;;;;;;20.70;57.55;96209.84;4901147;29;20918;-82
2022/08/09 00:26:02;;;;;;;3.15;2.60;;;;;;;20.71;57.83;96205.41;4901184;29;20214;-81
2022/08/09 00:28:29;;;;;;;3.90;2.80;;;;;;;20.58;58.53;96209.84;4900391;29;20679;-81
2022/08/09 00:30:57;;;;;;;3.72;2.92;;;;;;;20.56;58.40;96211.88;4899671;29;20838;-80
2022/08/09 00:33:23;;;;;;;3.30;3.00;;;;;;;20.55;58.82;96209.47;4900052;29;20238;-82
2022/08/09 00:35:50;;;;;;;3.22;3.03;;;;;;;20.47;59.51;96204.56;4901567;29;20222;-81
2022/08/09 00:38:16;;;;;;;3.88;2.83;;;;;;;20.47;59.04;96207.97;4900993;29;20207;-80
2022/08/09 00:40:45;;;;;;;3.08;2.88;;;;;;;20.50;58.93;96204.91;4901162;29;20277;-80
2022/08/09 00:43:13;;;;;;;3.00;2.80;;;;;;;20.41;59.66;96210.66;4900098;29;20591;-81
2022/08/09 00:45:39;;;;;;;4.00;2.90;;;;;;;20.32;59.83;96205.75;4900160;29;20232;-81
2022/08/09 00:48:06;;;;;;;3.20;2.90;;;;;;;20.31;60.31;96208.56;4899891;29;20208;-80
2022/08/09 00:50:34;;;;;;;3.10;2.83;;;;;;;20.26;60.62;96211.84;4899346;29;20679;-80
2022/08/09 00:53:00;;;;;;;5.80;3.22;;;;;;;20.26;60.88;96208.44;4906718;29;20278;-82
2022/08/09 00:55:26;;;;;;;3.75;3.00;;;;;;;20.29;60.54;96213.22;4910677;29;20236;-81
2022/08/09 00:57:53;;;;;;;3.20;3.00;;;;;;;20.23;60.61;96214.09;4909815;29;20231;-81
2022/08/09 01:00:21;;;;;;;4.25;3.03;;;;;;;20.22;60.69;96215.91;4909332;29;20255;-81
2022/08/09 01:02:49;;;;;;;3.38;3.08;;;;;;;20.21;60.67;96213.53;4909615;29;20231;-82
2022/08/09 01:05:22;;;;;;;3.13;2.92;;;;;;;20.16;60.67;96216.03;4911211;29;20211;-82
2022/08/09 01:07:57;;;;;;;3.35;3.00;;;;;;;20.12;61.31;96213.03;4910508;29;20231;-82
2022/08/09 01:10:33;;;;;;;3.30;3.10;;;;;;;20.10;61.57;96211.66;4908924;29;20281;-81
2022/08/09 01:13:04;;;;;;;3.63;3.00;;;;;;;20.04;61.91;96215.16;4908868;29;20263;-81
2022/08/09 01:15:38;;;;;;;3.58;3.30;;;;;;;20.00;62.04;96220.84;4910161;29;20255;-81
2022/08/09 01:18:11;;;;;;;4.20;3.42;;;;;;;19.89;62.46;96218.94;4909594;29;20674;-82
2022/08/09 01:20:45;;;;;;;3.08;2.88;;;;;;;19.98;61.97;96220.25;4908605;29;20245;-82
2022/08/09 01:23:23;;;;;;;3.67;3.38;;;;;;;19.93;62.54;96220.09;4909027;29;20242;-81
2022/08/09 01:26:00;;;;;;;3.42;3.13;;;;;;;19.96;62.37;96216.25;4910770;29;20233;-81
2022/08/09 01:28:30;;;;;;;3.45;3.15;;;;;;;20.01;61.84;96222.41;4910003;29;20203;-82
2022/08/09 01:30:58;;;;;;;3.92;3.30;;;;;;;20.10;61.53;96215.06;4910542;29;20227;-81
2022/08/09 01:33:28;;;;;;;3.10;2.90;;;;;;;20.12;61.44;96217.47;4913217;29;20234;-81
2022/08/09 01:36:01;;;;;;;3.30;3.10;;;;;;;20.12;61.94;96217.47;4912969;29;20312;-81
2022/08/09 01:38:31;;;;;;;3.33;3.13;;;;;;;20.02;62.05;96215.38;4912500;29;20205;-81
2022/08/09 01:41:03;;;;;;;3.92;3.30;;;;;;;19.99;62.29;96215.81;4911946;29;20223;-81
2022/08/09 01:43:31;;;;;;;4.30;3.20;;;;;;;19.89;62.45;96216.34;4912601;29;20235;-82
2022/08/09 01:45:59;;;;;;;3.50;3.20;;;;;;;19.87;62.41;96215.75;4912827;29;20266;-81
2022/08/09 01:48:27;;;;;;;3.50;3.00;;;;;;;19.91;61.76;96209.06;4912440;29;20207;-81
2022/08/09 01:50:55;;;;;;;3.13;2.92;;;;;;;19.81;63.06;96215.84;4912122;29;20282;-81
2022/08/09 01:53:22;;;;;;;3.35;3.05;;;;;;;19.60;63.52;96217.88;4911949;29;20243;-81
2022/08/09 01:55:50;;;;;;;3.67;3.17;;;;;;;19.55;63.78;96211.69;4912508;29;20638;-81
2022/08/09 01:58:25;;;;;;;3.63;3.33;;;;;;;19.59;63.72;96218.88;4912486;29;20264;-82
2022/08/09 02:00:54;;;;;;;3.50;3.13;;;;;;;19.53;63.42;96208.50;4911513;29;20226;-81
2022/08/09 02:03:22;;;;;;;3.45;3.15;;;;;;;19.49;64.24;96215.13;4911720;29;20231;-81
2022/08/09 02:05:51;;;;;;;3.90;3.60;;;;;;;19.47;64.22;96228.41;4912948;29;20207;-80
2022/08/09 02:08:19;;;;;;;6.70;3.28;;;;;;;19.56;63.44;96227.16;4911925;29;20215;-81
2022/08/09 02:10:49;;;;;;;3.40;3.10;;;;;;;19.53;64.09;96238.03;4911162;29;20294;-82
2022/08/09 02:13:17;;;;;;;5.57;3.45;;;;;;;19.58;63.48;96227.75;4910668;29;20254;-81
2022/08/09 02:15:48;;;;;;;3.63;3.30;;;;;;;19.62;63.81;96228.91;4910688;29;20214;-81
2022/08/09 02:18:20;;;;;;;3.90;3.60;;;;;;;19.63;63.64;96227.88;4910930;29;20714;-81
2022/08/09 02:20:51;;;;;;;3.60;3.33;;;;;;;19.52;63.86;96236.44;4910224;29;20492;-81
2022/08/09 02:23:23;;;;;;;4.10;3.78;;;;;;;19.47;64.15;96235.44;4910151;29;20234;-80
2022/08/09 02:25:52;;;;;;;4.00;3.70;;;;;;;19.30;64.59;96232.59;4910561;29;20214;-81
2022/08/09 02:28:23;;;;;;;4.10;3.70;;;;;;;19.15;65.19;96240.75;4910162;29;20207;-82
2022/08/09 02:30:53;;;;;;;3.83;3.35;;;;;;;19.17;65.11;96241.34;4910253;29;20247;-82
2022/08/09 02:33:24;;;;;;;3.88;3.58;;;;;;;19.25;64.81;96238.44;4910880;29;20238;-82
2022/08/09 02:35:54;;;;;;;3.53;3.28;;;;;;;19.33;64.20;96237.41;4910971;29;20211;-80
2022/08/09 02:38:25;;;;;;;3.78;3.47;;;;;;;19.36;64.29;96238.78;4910726;29;20206;-81
2022/08/09 02:40:55;;;;;;;3.95;3.65;;;;;;;19.30;64.21;96237.81;4909121;29;20234;-82
2022/08/09 02:43:24;;;;;;;4.78;3.40;;;;;;;19.19;63.31;96238.53;4908972;29;20242;-82
2022/08/09 02:45:52;;;;;;;3.83;3.53;;;;;;;19.18;62.79;96242.94;4909610;29;20207;-82
2022/08/09 02:48:21;;;;;;;3.53;3.22;;;;;;;19.10;62.41;96242.41;4909405;29;20677;-81
2022/08/09 02:50:52;;;;;;;3.53;3.13;;;;;;;19.14;62.54;96238.38;4908511;29;20223;-81
2022/08/09 02:53:25;;;;;;;3.38;3.15;;;;;;;19.12;62.37;96243.00;4909365;29;20357;-82
2022/08/09 02:55:52;;;;;;;3.50;3.30;;;;;;;19.01;62.64;96247.13;4909107;29;20211;-81
2022/08/09 02:58:22;;;;;;;3.67;3.47;;;;;;;19.03;62.68;96239.88;4908266;29;20309;-82
2022/08/09 03:00:49;;;;;;;3.80;3.40;;;;;;;18.86;62.73;96241.38;4908482;29;20215;-80
2022/08/09 03:03:18;;;;;;;3.40;3.10;;;;;;;18.93;61.75;96240.34;4908839;29;20227;-81
2022/08/09 03:05:47;;;;;;;4.50;3.50;;;;;;;19.00;61.43;96242.91;4908990;29;20207;-81
2022/08/09 03:08:15;;;;;;;3.67;3.38;;;;;;;19.05;60.98;96235.22;4908650;29;20206;-81
2022/08/09 03:10:42;;;;;;;3.58;3.28;;;;;;;19.01;60.64;96236.66;4907592;29;20230;-81
2022/08/09 03:13:09;;;;;;;3.88;3.30;;;;;;;19.03;60.76;96231.25;4908373;29;20295;-81
2022/08/09 03:15:38;;;;;;;4.80;3.65;;;;;;;18.91;60.90;96234.53;4908858;29;20207;-81
2022/08/09 03:18:06;;;;;;;4.10;3.60;;;;;;;18.90;61.21;96234.72;4907762;29;20263;-81
2022/08/09 03:20:33;;;;;;;3.30;3.10;;;;;;;18.82;61.47;96230.59;4907464;29;20234;-81
2022/08/09 03:23:01;;;;;;;4.70;3.40;;;;;;;18.74;61.76;96228.22;4908140;29;20237;-81
2022/08/09 03:25:30;;;;;;;4.20;3.60;;;;;;;18.67;61.76;96224.06;4907614;29;20218;-81
2022/08/09 03:28:02;;;;;;;4.30;3.92;;;;;;;18.64;61.91;96225.31;4908296;29;20207;-82
2022/08/09 03:30:29;;;;;;;4.13;3.75;;;;;;;18.63;62.01;96236.75;4907528;29;20227;-80
2022/08/09 03:32:58;;;;;;;3.92;3.63;;;;;;;18.56;62.57;96228.91;4908862;29;20234;-82
2022/08/09 03:35:24;;;;;;;3.92;3.63;;;;;;;18.59;62.68;96232.94;4908149;29;20314;-81
2022/08/09 03:37:51;;;;;;;5.18;3.72;;;;;;;18.50;63.08;96239.38;4908163;29;20278;-81
2022/08/09 03:40:19;;;;;;;4.00;3.70;;;;;;;18.56;62.88;96239.34;4907520;29;20461;-82
2022/08/09 03:42:46;;;;;;;4.60;3.55;;;;;;;18.48;63.09;96241.41;4908744;29;20258;-80
2022/08/09 03:45:12;;;;;;;3.58;3.28;;;;;;;18.41;63.63;96243.25;4908555;29;20270;-81
2022/08/09 03:47:38;;;;;;;4.10;3.70;;;;;;;18.40;63.35;96239.84;4907388;29;20202;-81
2022/08/09 03:50:07;;;;;;;4.05;3.70;;;;;;;18.40;63.70;96249.47;4906251;29;20243;-81
2022/08/09 03:52:35;;;;;;;3.67;3.25;;;;;;;18.43;63.56;96241.25;4907916;29;20742;-81
2022/08/09 03:55:04;;;;;;;4.88;3.20;;;;;;;18.72;67.43;96250.31;4905495;29;20266;-80
2022/08/09 03:57:32;;;;;;;3.22;2.92;;;;;;;19.12;65.95;96254.25;4905353;29;20750;-80
2022/08/09 03:59:58;;;;;;;4.78;2.88;;;;;;;19.45;64.06;96250.53;4904060;29;20226;-80
2022/08/09 04:02:26;;;;;;;3.47;3.17;;;;;;;19.74;61.97;96252.50;4902913;29;20262;-80
2022/08/09 04:04:53;;;;;;;2.70;2.50;;;;;;;20.02;63.91;96255.38;4903869;29;20211;-80
2022/08/09 04:07:19;;;;;;;3.15;2.95;;;;;;;20.15;62.21;96256.25;4904333;29;20210;-81
2022/08/09 04:09:46;;;;;;;3.22;3.03;;;;;;;20.02;60.22;96259.81;4903807;29;20226;-81
2022/08/09 04:12:35;;;;;;;3.70;3.40;;;;;;;19.99;60.60;96262.88;4903400;29;20210;-81
2022/08/09 04:15:02;;;;;;;3.50;3.20;;;;;;;19.92;61.34;96257.72;4903140;29;20341;-81
2022/08/09 04:17:29;;;;;;;3.95;3.42;;;;;;;19.96;62.17;96263.31;4903775;29;20222;-80
2022/08/09 04:19:55;;;;;;;3.60;3.30;;;;;;;20.05;61.94;96259.38;4903504;29;20255;-82
2022/08/09 04:22:22;;;;;;;3.80;3.10;;;;;;;20.18;60.70;96261.06;4900908;29;20262;-80
2022/08/09 04:24:48;;;;;;;3.80;3.40;;;;;;;20.09;60.95;96268.38;4903761;29;20262;-81
2022/08/09 04:27:15;;;;;;;4.80;3.40;;;;;;;20.04;60.44;96265.63;4904155;29;20235;-82
2022/08/09 04:29:41;;;;;;;3.50;3.20;;;;;;;19.97;61.18;96264.91;4903423;29;20251;-81
2022/08/09 04:32:09;;;;;;;4.32;3.55;;;;;;;20.05;61.58;96264.59;4903632;29;20213;-82
2022/08/09 04:34:35;;;;;;;4.30;3.67;;;;;;;20.22;62.96;96265.59;4903827;29;20263;-82
2022/08/09 04:37:01;;;;;;;5.18;3.00;;;;;;;20.35;62.49;96265.47;4903849;29;20226;-82
2022/08/09 04:39:28;;;;;;;3.83;3.53;;;;;;;20.31;60.38;96266.91;4904144;29;20235;-81
2022/08/09 04:41:55;;;;;;;3.42;3.13;;;;;;;20.06;60.79;96265.41;4904239;29;20207;-81
2022/08/09 04:44:21;;;;;;;3.67;3.38;;;;;;;20.09;62.03;96275.44;4903231;29;20295;-80
2022/08/09 04:46:47;;;;;;;4.43;3.25;;;;;;;20.15;61.62;96277.19;4901321;29;20270;-81
2022/08/09 04:49:15;;;;;;;3.65;3.30;;;;;;;20.30;61.98;96277.59;4902700;29;20259;-82
2022/08/09 04:51:41;;;;;;;3.90;3.55;;;;;;;20.41;61.56;96278.69;4902981;29;20231;-81
2022/08/09 04:54:08;;;;;;;3.72;3.42;;;;;;;20.47;60.91;96281.22;4903708;29;20246;-81
2022/08/09 04:56:34;;;;;;;3.97;3.38;;;;;;;20.59;61.59;96273.44;4901973;29;20754;-81
2022/08/09 04:59:01;;;;;;;3.20;2.90;;;;;;;20.86;60.23;96279.88;4900782;29;20218;-81
2022/08/09 05:01:27;;;;;;;4.40;3.88;;;;;;;20.96;59.39;96279.34;4898464;29;20659;-80
2022/08/09 05:03:54;;;;;;;13.70;7.65;;;;;;;20.58;61.51;96282.31;4901011;29;20248;-80
2022/08/09 05:06:22;;;;;;;7.90;5.47;;;;;;;20.41;61.14;96289.16;4905113;29;20282;-81
2022/08/09 05:08:48;;;;;;;5.93;4.40;;;;;;;20.39;60.99;96286.78;4905944;29;20247;-82
2022/08/09 05:11:14;;;;;;;5.13;3.97;;;;;;;20.56;60.21;96282.53;4905125;29;20226;-81
2022/08/09 05:13:41;;;;;;;3.80;3.50;;;;;;;20.53;59.51;96287.41;4904461;29;20290;-81
2022/08/09 05:16:10;;;;;;;4.90;3.50;;;;;;;20.47;58.50;96289.06;4905711;29;20213;-82
2022/08/09 05:18:37;;;;;;;4.20;3.88;;;;;;;20.29;59.47;96289.88;4901056;29;20226;-81
2022/08/09 05:21:03;;;;;;;4.88;3.63;;;;;;;20.21;58.75;96300.63;4909085;29;20245;-81
2022/08/09 05:23:31;;;;;;;8.40;7.60;;;;;;;20.07;60.03;96296.56;4911102;29;20235;-81
2022/08/09 05:25:57;;;;;;;16.80;15.23;;;;;;;20.21;60.55;96300.63;4912091;29;20207;-81
2022/08/09 05:28:24;;;;;;;5.78;5.13;;;;;;;20.23;59.40;96298.59;4911493;29;20255;-82
2022/08/09 05:30:50;;;;;;;4.00;3.63;;;;;;;20.20;59.41;96299.06;4909362;29;20686;-81
2022/08/09 05:33:17;;;;;;;3.80;3.50;;;;;;;20.13;59.41;96300.94;4909571;29;20230;-81
2022/08/09 05:35:43;;;;;;;4.05;3.50;;;;;;;20.13;59.42;96300.94;4911344;29;20214;-82
2022/08/09 05:38:10;;;;;;;6.00;3.53;;;;;;;19.99;59.74;96302.91;4911251;29;20246;-80
2022/08/09 05:40:37;;;;;;;5.18;3.42;;;;;;;20.10;60.10;96303.97;4910039;29;20229;-81
2022/08/09 05:43:04;;;;;;;3.83;3.40;;;;;;;20.21;60.11;96305.03;4910014;29;20253;-81
2022/08/09 05:45:30;;;;;;;3.53;3.20;;;;;;;20.24;59.46;96297.56;4910906;29;20233;-82
2022/08/09 05:47:57;;;;;;;3.53;3.13;;;;;;;20.23;59.96;96303.00;4910294;29;20211;-82
2022/08/09 05:50:24;;;;;;;4.25;3.30;;;;;;;20.25;59.56;96300.97;4910558;29;20230;-82
2022/08/09 05:52:51;;;;;;;4.43;3.10;;;;;;;20.28;59.60;96298.72;4908990;29;20745;-81
2022/08/09 05:55:18;;;;;;;3.10;2.90;;;;;;;20.34;59.09;96294.44;4909929;29;20203;-81
2022/08/09 05:57:46;;;;;;;3.60;3.30;;;;;;;20.34;59.76;96297.88;4909933;29;20254;-82
2022/08/09 06:00:13;;;;;;;3.28;3.00;;;;;;;20.44;59.25;96299.19;4910441;29;20266;-82
2022/08/09 06:02:40;;;;;;;3.30;3.00;;;;;;;20.46;58.72;96305.00;4912097;29;20234;-82
2022/08/09 06:05:08;;;;;;;3.65;3.30;;;;;;;20.51;58.18;96305.94;4914195;29;20226;-81
2022/08/09 06:07:34;;;;;;;3.67;3.20;;;;;;;20.45;58.33;96303.38;4913304;29;20235;-82
2022/08/09 06:10:01;;;;;;;3.47;2.90;;;;;;;20.44;58.25;96304.41;4912780;29;20294;-83
2022/08/09 06:12:27;;;;;;;6.20;3.20;;;;;;;20.50;58.38;96311.38;4910676;29;20199;-82
2022/08/09 06:14:55;;;;;;;3.97;2.88;;;;;;;20.62;57.82;96307.78;4910869;29;20270;-82
2022/08/09 06:17:22;;;;;;;2.95;2.75;;;;;;;20.72;57.30;96307.28;4911584;29;20234;-82
2022/08/09 06:19:48;;;;;;;3.38;3.08;;;;;;;20.79;57.39;96307.97;4910676;29;20543;-82
2022/08/09 06:22:15;;;;;;;6.20;3.20;;;;;;;20.83;57.30;96316.16;4909052;29;20265;-82
2022/08/09 06:24:42;;;;;;;5.85;3.10;;;;;;;20.92;57.54;96309.63;4910562;29;20254;-82
2022/08/09 06:27:08;;;;;;;6.07;2.80;;;;;;;20.98;56.78;96314.72;4912019;29;20210;-82
2022/08/09 06:29:35;;;;;;;4.00;2.90;;;;;;;21.06;55.88;96308.38;4912860;29;20227;-82
2022/08/09 06:32:03;;;;;;;2.53;2.33;;;;;;;21.14;56.04;96312.53;4909971;29;20239;-82
2022/08/09 06:34:29;;;;;;;3.53;2.53;;;;;;;21.30;56.51;96310.06;4907750;29;20786;-82
2022/08/09 06:36:55;;;;;;;2.85;2.58;;;;;;;21.34;55.79;96307.81;4905992;29;20266;-82
2022/08/09 06:39:22;;;;;;;7.00;2.42;;;;;;;21.58;57.45;96312.00;4900796;29;20317;-82
2022/08/09 06:41:48;;;;;;;4.45;2.70;;;;;;;21.75;54.77;96313.94;4903213;29;20289;-80
2022/08/09 06:44:15;;;;;;;2.92;2.72;;;;;;;21.81;54.09;96318.28;4904759;29;20230;-80
2022/08/09 06:46:42;;;;;;;3.05;2.85;;;;;;;21.80;53.66;96311.44;4907956;29;20211;-82
2022/08/09 06:49:09;;;;;;;3.38;2.70;;;;;;;21.76;53.78;96316.34;4908900;29;20226;-82
2022/08/09 06:51:37;;;;;;;3.60;2.70;;;;;;;21.71;53.67;96319.66;4907478;29;20218;-82
2022/08/09 06:54:03;;;;;;;3.20;2.90;;;;;;;21.65;53.94;96315.34;4908894;29;20238;-82
2022/08/09 06:56:30;;;;;;;5.15;2.60;;;;;;;21.65;53.49;96320.56;4909395;29;20222;-82
2022/08/09 06:58:56;;;;;;;4.97;2.83;;;;;;;21.63;53.63;96319.19;4910172;29;20242;-82
2022/08/09 07:01:22;;;;;;;6.18;2.65;;;;;;;21.80;53.53;96322.72;4909802;29;20211;-82
2022/08/09 07:03:49;;;;;;;4.35;2.70;;;;;;;21.85;53.83;96317.59;4907696;29;20301;-82
2022/08/09 07:06:17;;;;;;;6.50;2.85;;;;;;;21.92;53.45;96318.28;4908862;29;20203;-81
2022/08/09 07:08:43;;;;;;;3.10;2.60;;;;;;;21.92;52.87;96325.38;4910257;29;20259;-82
2022/08/09 07:11:09;;;;;;;3.72;2.53;;;;;;;21.97;52.65;96322.84;4908951;29;20294;-81
2022/08/09 07:13:36;;;;;;;4.55;3.05;;;;;;;22.07;52.60;96322.28;4908722;29;20894;-82
2022/08/09 07:16:03;;;;;;;5.63;2.50;;;;;;;22.09;51.76;96328.09;4909565;29;20215;-82
2022/08/09 07:18:29;;;;;;;6.75;2.72;;;;;;;22.08;51.54;96324.69;4909758;29;20298;-81
2022/08/09 07:20:55;;;;;;;3.13;2.83;;;;;;;22.21;51.63;96327.06;4910228;29;20222;-82
2022/08/09 07:23:23;;;;;;;3.08;2.65;;;;;;;22.35;51.08;96327.59;4909422;29;20263;-81
2022/08/09 07:25:50;;;;;;;3.75;2.38;;;;;;;22.46;50.89;96325.97;4908371;29;20207;-82
2022/08/09 07:28:16;;;;;;;2.97;2.35;;;;;;;22.63;49.98;96324.19;4909711;29;20203;-82
2022/08/09 07:30:42;;;;;;;2.80;2.50;;;;;;;22.69;49.79;96326.69;4907515;29;20632;-82
2022/08/09 07:33:09;;;;;;;2.70;2.47;;;;;;;22.75;49.87;96320.50;4909332;29;20238;-82
2022/08/09 07:35:35;;;;;;;2.80;2.60;;;;;;;22.81;48.88;96329.28;4907319;29;20211;-82
2022/08/09 07:38:02;;;;;;;6.03;2.75;;;;;;;22.87;48.57;96325.75;4909038;29;20227;-82
2022/08/09 07:40:30;;;;;;;2.90;2.45;;;;;;;23.03;48.48;96324.19;4907369;29;20285;-82
2022/08/09 07:42:59;;;;;;;6.10;2.45;;;;;;;23.22;47.79;96330.00;4908351;29;20242;-82
2022/08/09 07:45:27;;;;;;;3.50;2.47;;;;;;;23.30;46.58;96329.59;4908091;29;20203;-82
2022/08/09 07:47:57;;;;;;;5.43;2.30;;;;;;;23.31;46.72;96329.38;4907102;29;20203;-82
2022/08/09 07:50:26;;;;;;;2.22;2.03;;;;;;;23.42;45.41;96339.03;4907033;29;20223;-82
2022/08/09 07:52:53;;;;;;;2.33;2.10;;;;;;;23.47;44.89;96340.94;4906252;29;20290;-80
2022/08/09 07:55:20;;;;;;;2.63;2.20;;;;;;;23.67;46.78;96341.25;4906179;29;20206;-78
2022/08/09 07:57:49;;;;;;;2.33;2.13;;;;;;;23.96;46.47;96339.31;4907570;29;20245;-80
2022/08/09 08:00:16;;;;;;;2.30;2.10;;;;;;;24.17;46.17;96342.22;4907745;29;20232;-80
2022/08/09 08:02:43;;;;;;;3.30;2.00;;;;;;;24.22;45.28;96345.72;4906294;29;20238;-81
2022/08/09 08:05:09;;;;;;;3.55;2.45;;;;;;;24.19;43.95;96346.22;4906452;29;20287;-81
2022/08/09 08:07:36;;;;;;;2.55;2.35;;;;;;;24.23;44.37;96355.22;4905880;29;20206;-81
2022/08/09 08:10:03;;;;;;;3.95;2.30;;;;;;;24.25;44.37;96357.63;4906376;29;20294;-81
2022/08/09 08:12:29;;;;;;;3.38;2.22;;;;;;;24.40;44.47;96344.66;4908745;29;20217;-81
2022/08/09 08:14:57;;;;;;;2.20;2.00;;;;;;;24.40;43.73;96347.31;4908326;29;20207;-80
2022/08/09 08:17:24;;;;;;;4.18;2.00;;;;;;;24.54;43.24;96348.50;4906847;29;20206;-81
2022/08/09 08:19:50;;;;;;;2.10;1.90;;;;;;;24.63;42.51;96344.38;4906868;29;20231;-81
2022/08/09 08:22:17;;;;;;;3.08;1.90;;;;;;;24.83;41.89;96345.66;4906844;29;20285;-81
2022/08/09 08:24:43;;;;;;;2.20;2.00;;;;;;;24.86;42.03;96351.22;4906801;29;20226;-81
2022/08/09 08:27:09;;;;;;;3.40;2.13;;;;;;;24.95;41.46;96341.09;4905733;29;20247;-81
2022/08/09 08:29:36;;;;;;;2.20;2.00;;;;;;;24.94;40.91;96350.84;4906315;29;20219;-81
2022/08/09 08:32:04;;;;;;;2.97;2.42;;;;;;;24.73;41.74;96344.53;4905998;29;20829;-81
2022/08/09 08:34:31;;;;;;;2.55;2.35;;;;;;;24.86;41.71;96353.06;4906217;29;20238;-81
2022/08/09 08:36:57;;;;;;;2.17;2.05;;;;;;;25.03;41.41;96351.16;4905726;29;20269;-81
2022/08/09 08:39:23;;;;;;;3.15;2.40;;;;;;;25.02;40.60;96345.09;4906186;29;20707;-81
2022/08/09 08:41:51;;;;;;;5.82;2.40;;;;;;;25.15;40.95;96346.56;4909067;29;20206;-81
2022/08/09 08:44:18;;;;;;;2.95;2.20;;;;;;;25.25;41.11;96348.47;4909748;29;20734;-81
2022/08/09 08:46:45;;;;;;;2.10;2.00;;;;;;;25.45;41.01;96343.38;4909898;29;20217;-81
2022/08/09 08:49:14;;;;;;;2.47;2.10;;;;;;;25.48;39.80;96350.78;4908389;29;20662;-81
2022/08/09 08:51:40;;;;;;;3.20;2.10;;;;;;;25.56;40.53;96349.53;4909518;29;20261;-81
2022/08/09 08:54:10;;;;;;;2.60;2.03;;;;;;;25.60;40.62;96348.75;4908790;29;20242;-81
2022/08/09 08:56:38;;;;;;;2.50;2.05;;;;;;;25.80;39.96;96348.94;4906439;29;20214;-81
2022/08/09 08:59:06;;;;;;;3.17;2.20;;;;;;;25.96;39.89;96354.34;4908522;29;20230;-81
2022/08/09 09:01:35;;;;;;;2.58;2.38;;;;;;;26.01;38.62;96347.22;4907823;29;20234;-82
2022/08/09 09:04:02;;;;;;;3.60;2.40;;;;;;;25.93;39.31;96345.09;4907034;29;20305;-81
2022/08/09 09:06:31;;;;;;;2.15;1.85;;;;;;;25.94;37.81;96344.03;4907630;29;20229;-81
2022/08/09 09:08:59;;;;;;;2.75;1.75;;;;;;;26.02;37.38;96338.25;4907380;29;20231;-81
2022/08/09 09:11:28;;;;;;;2.60;1.92;;;;;;;26.21;36.91;96343.91;4907075;29;20218;-81
2022/08/09 09:13:57;;;;;;;2.55;2.00;;;;;;;25.97;35.63;96334.81;4907116;29;20242;-80
2022/08/09 09:16:24;;;;;;;4.38;2.33;;;;;;;26.04;36.51;96340.66;4907557;29;20211;-82
2022/08/09 09:18:53;;;;;;;2.10;1.90;;;;;;;26.15;34.63;96347.59;4907077;29;20227;-81
2022/08/09 09:21:20;;;;;;;4.97;1.85;;;;;;;26.27;34.21;96336.81;4906951;29;20752;-81
2022/08/09 09:23:48;;;;;;;5.40;1.83;;;;;;;26.46;34.65;96337.97;4908670;29;20906;-82
2022/08/09 09:26:15;;;;;;;3.20;1.83;;;;;;;26.37;33.98;96342.16;4907262;29;20490;-81
2022/08/09 09:28:44;;;;;;;3.15;1.80;;;;;;;26.20;34.29;96337.03;4906603;29;20263;-82
2022/08/09 09:31:13;;;;;;;4.82;1.80;;;;;;;26.28;34.65;96343.69;4907698;29;20644;-82
2022/08/09 09:33:40;;;;;;;1.95;1.77;;;;;;;26.42;33.90;96347.47;4907271;29;20242;-81
2022/08/09 09:36:08;;;;;;;2.08;1.60;;;;;;;26.58;33.74;96343.81;4907830;29;20312;-82
2022/08/09 09:38:44;;;;;;;1.88;1.77;;;;;;;26.70;33.71;96344.41;4907034;29;20314;-82
2022/08/09 09:41:26;;;;;;;3.67;1.90;;;;;;;26.80;33.57;96340.97;4907442;29;20766;-82
2022/08/09 09:43:53;;;;;;;4.40;1.73;;;;;;;26.56;34.22;96337.19;4907230;29;20746;-82
2022/08/09 09:46:19;;;;;;;2.78;1.80;;;;;;;26.65;34.59;96338.31;4907374;29;20216;-82
2022/08/09 09:48:56;;;;;;;2.08;1.50;;;;;;;26.87;33.69;96338.09;4906988;29;20266;-82
2022/08/09 09:51:23;;;;;;;5.32;1.95;;;;;;;27.04;33.55;96342.13;4907538;29;20241;-81
2022/08/09 09:54:02;;;;;;;1.75;1.65;;;;;;;27.20;33.34;96337.66;4908020;29;20245;-82
2022/08/09 09:56:33;;;;;;;1.85;1.70;;;;;;;27.22;33.46;96337.41;4909916;29;20240;-81
2022/08/09 09:59:00;;;;;;;1.60;1.50;;;;;;;27.27;33.00;96342.69;4910589;29;20234;-81
2022/08/09 10:01:27;;;;;;;4.30;1.80;;;;;;;27.36;33.06;96343.75;4910097;29;20255;-81
2022/08/09 10:03:55;;;;;;;1.85;1.73;;;;;;;27.40;33.65;96339.53;4910593;29;20234;-81
2022/08/09 10:06:21;;;;;;;1.98;1.75;;;;;;;27.24;32.68;96337.94;4910851;29;20247;-81
2022/08/09 10:08:50;;;;;;;2.47;1.95;;;;;;;26.80;33.20;96341.78;4911970;29;20750;-81
2022/08/09 10:11:18;;;;;;;2.05;1.85;;;;;;;26.71;33.68;96337.28;4908742;29;20230;-83
2022/08/09 10:13:47;;;;;;;1.92;1.75;;;;;;;27.01;33.67;96328.63;4907303;29;20254;-82
2022/08/09 10:16:13;;;;;;;2.35;1.83;;;;;;;27.29;33.73;96330.00;4907685;29;20279;-82
2022/08/09 10:18:49;;;;;;;3.05;1.88;;;;;;;27.36;33.17;96339.25;4905199;29;20235;-82
2022/08/09 10:21:16;;;;;;;2.00;1.80;;;;;;;27.36;33.51;96339.25;4903553;29;20234;-82
2022/08/09 10:23:43;;;;;;;3.95;2.13;;;;;;;27.21;33.25;96339.25;4903778;29;20266;-82
2022/08/09 10:26:10;;;;;;;1.85;1.70;;;;;;;27.26;33.16;96325.25;4905771;29;20224;-82
2022/08/09 10:28:38;;;;;;;2.03;1.63;;;;;;;27.14;33.05;96315.69;4903815;29;20243;-82
2022/08/09 10:31:07;;;;;;;1.70;1.60;;;;;;;27.24;33.13;96333.44;4902215;29;20230;-80
2022/08/09 10:33:35;;;;;;;3.35;2.10;;;;;;;27.18;33.50;96332.63;4903758;29;20238;-80
2022/08/09 10:36:02;;;;;;;2.22;2.00;;;;;;;27.49;34.12;96328.16;4904446;29;20207;-80
2022/08/09 10:38:29;;;;;;;2.95;1.90;;;;;;;27.55;32.67;96328.94;4902774;29;20686;-81
2022/08/09 10:40:55;;;;;;;1.80;1.65;;;;;;;27.38;33.71;96321.25;4900137;29;20235;-80
2022/08/09 10:43:22;;;;;;;2.85;2.10;;;;;;;27.27;34.11;96318.91;4901130;29;20648;-80
2022/08/09 10:45:49;;;;;;;2.83;2.00;;;;;;;27.40;34.38;96324.44;4902989;29;20210;-80
2022/08/09 10:48:24;;;;;;;3.22;2.20;;;;;;;27.60;34.19;96328.16;4905175;29;20227;-80
2022/08/09 10:51:10;;;;;;;2.85;2.10;;;;;;;27.75;34.13;96322.84;4903738;29;20651;-80
2022/08/09 10:53:51;;;;;;;5.50;2.10;;;;;;;27.69;33.87;96319.44;4904215;29;20249;-80
2022/08/09 10:56:22;;;;;;;2.78;2.03;;;;;;;27.74;33.57;96318.63;4904216;29;20202;-81
2022/08/09 10:58:49;;;;;;;3.55;2.13;;;;;;;27.74;33.90;96316.75;4903336;29;20226;-80
2022/08/09 11:01:38;;;;;;;2.60;2.20;;;;;;;28.06;35.10;96321.75;4903404;29;20255;-80
2022/08/09 11:04:14;;;;;;;3.60;1.95;;;;;;;27.96;33.96;96321.75;4891968;29;20327;-80
2022/08/09 11:06:42;;;;;;;3.58;2.30;;;;;;;27.83;34.34;96317.03;4903158;29;20221;-80
2022/08/09 11:09:10;;;;;;;3.17;2.00;;;;;;;27.81;34.45;96311.19;4903159;29;20199;-80
2022/08/09 11:12:08;;;;;;;4.00;2.03;;;;;;;27.74;34.70;96310.69;4901610;29;20203;-80
2022/08/09 11:14:38;;;;;;;2.70;2.10;;;;;;;27.93;34.23;96318.84;4902322;29;20239;-80
2022/08/09 11:17:52;;;;;;;3.95;2.00;;;;;;;28.12;34.56;96311.91;4904443;29;20302;-81
2022/08/09 11:20:39;;;;;;;5.38;2.30;;;;;;;28.04;34.19;96312.47;4901414;29;20235;-82
2022/08/09 11:23:05;;;;;;;2.30;2.10;;;;;;;28.08;33.69;96311.69;4902127;29;20317;-82
2022/08/09 11:25:40;;;;;;;4.65;1.95;;;;;;;27.93;33.29;96309.06;4901781;29;20214;-82
2022/08/09 11:28:33;;;;;;;4.13;2.22;;;;;;;27.96;33.95;96310.38;4902041;29;20231;-82
2022/08/09 11:31:01;;;;;;;2.47;2.00;;;;;;;27.91;34.74;96313.03;4900958;29;20242;-82
2022/08/09 11:33:48;;;;;;;2.28;1.92;;;;;;;28.11;34.52;96310.31;4903910;29;20245;-82
2022/08/09 11:36:17;;;;;;;3.97;2.08;;;;;;;28.16;33.26;96312.97;4905872;29;20210;-82
2022/08/09 11:39:00;;;;;;;2.10;1.90;;;;;;;28.12;33.25;96311.91;4906162;29;20277;-82
2022/08/09 11:41:30;;;;;;;2.22;2.03;;;;;;;28.10;33.45;96314.81;4904670;29;20215;-82